Phoenix Deer Valley, AZ

12:38 PM MST on August 22, 2014 (GMT -0700)
Scottsdale | Change Station
CLOSE
Current Station
Airport
Location: Scottsdale,
Elevation: 1509 ft
Nearby Weather Stations

Elev 1509 ft 33.62 °N, 111.91 °W | Updated 45 minutes ago

Scattered Clouds
Scattered Clouds
84 °F
Feels Like 84 °F
N
5
Wind Variable Wind from South

Today
High -- | Low -- °F
--% Chance of Precip.
Yesterday
High -- | Low -- °F
Precip. -- in
5:55 AM 7:06 PM
Waning Crescent, 7% visible
Pressure 29.93 in
Visibility 10.0 miles
Clouds Scattered Clouds 10000 ft
Heat Index 84 °F
Dew Point 62 °F
Humidity 47%
Rainfall 0.00 in
Snow Depth Not available.
UV 9 out of 12
Pollen 4.30 out of 12
Ozone Good
PM2.5 Good
Flu Activity Not available.
METAR KSDL 221853Z 19004KT 10SM SCT100 29/17 A2999 RMK AO2 SLP134 T02890167

More Conditions Fewer Conditions

Pressure 29.93 in
Visibility 10.0 miles
Clouds Scattered Clouds 10000 ft
Heat Index 84 °F
Dew Point 62 °F
Humidity 47%
Rainfall 0.00 in
Snow Depth Not available.
UV 9 out of 12
Pollen 4.30 out of 12
Ozone Good
PM2.5 Good
Flu Activity Not available.
METAR KSDL 221853Z 19004KT 10SM SCT100 29/17 A2999 RMK AO2 SLP134 T02890167

More Conditions Fewer Conditions

10-Day Weather Forecast

Almanac

Astronomy

Aug. 22, 2014 Rise Set
Actual Time 5:55 AM MST 7:06 PM MST
Civil Twilight 5:29 AM MST 7:32 PM MST
Nautical Twilight 4:58 AM MST 8:03 PM MST
Astronomical Twilight 4:26 AM MST 8:34 PM MST
Moon 3:24 AM MST 5:14 PM MST
Length of Visible Light 14h 02m
Length of Day
13h 11m
Tomorrow will be 1m 55s shorter.
Waning Crescent, 7% of the Moon is Illuminated
Today
Waning Crescent
Aug 25
New
Sep 2
First Quarter
Sep 8
Full
Sep 15
Last Quarter

Today's Extremes

State Highs State Lows

Community

WunderPhotos

Upload Photos

1,746,226 photos uploaded!

Nearby

Air Quality

  Air Quality AQ Index Pollutant
Yesterday Good
OZONE
Yesterday Good
PM10
Current Good
OZONE
Current Good
PM2.5
Friday Moderate
OZONE
Friday Good
PM10
Friday Good
CO
Saturday Moderate
OZONE
Saturday Good
PM10
Saturday Good
CO
Sunday Moderate
OZONE
Sunday Good
PM10
Sunday Good
CO

Snow Depth

Station Depth Elevation
Workman Creek 1 in 6900 ft
Snowslide Canyon 0 in 9730 ft
Maverick Fork 0 in 9200 ft
Beaver Head 1 in 7990 ft

Earthquake Activity

City Distance Mag. Time & Date
No recent earthquake activity has been reported nearby.
Minimum magnitude displayed is 2.5.

Coastal Water Temperatures

Place Temperature
No Stations Reporting

Nearby Weather Stations